createdAt,value
2022-10-31T00:02:19.476Z,24.57
2022-10-31T00:05:07.610Z,24.73
2022-10-31T00:07:55.514Z,31.70
2022-10-31T00:10:44.286Z,22.90
2022-10-31T00:13:31.629Z,25.43
2022-10-31T00:16:22.658Z,21.50
2022-10-31T00:19:10.693Z,18.90
2022-10-31T00:21:58.649Z,25.93
2022-10-31T00:24:46.434Z,19.63
2022-10-31T00:27:34.487Z,21.23
2022-10-31T00:30:22.976Z,19.37
2022-10-31T00:33:11.955Z,21.40
2022-10-31T00:35:59.617Z,22.43
2022-10-31T00:38:49.356Z,20.77
2022-10-31T00:41:37.324Z,20.50
2022-10-31T00:44:29.666Z,17.53
2022-10-31T00:47:17.474Z,22.43
2022-10-31T00:50:09.329Z,23.10
2022-10-31T07:03:13.262Z,22.83
2022-10-31T07:06:02.405Z,22.27
2022-10-31T07:20:05.316Z,26.10
2022-10-31T07:22:54.266Z,28.20
2022-10-31T07:25:42.405Z,29.20
2022-10-31T07:28:42.643Z,33.43
2022-10-31T07:31:31.190Z,35.03
2022-10-31T07:34:24.801Z,32.90
2022-10-31T07:37:30.832Z,35.00
2022-10-31T07:40:22.667Z,29.35
2022-10-31T07:43:14.504Z,35.28
2022-10-31T07:46:21.200Z,36.55
2022-10-31T07:49:27.336Z,37.60
2022-10-31T07:52:21.149Z,31.35
2022-10-31T07:55:45.638Z,31.60
2022-10-31T07:58:34.800Z,37.88
2022-10-31T08:07:38.754Z,31.75
2022-10-31T09:14:29.220Z,14.90
2022-10-31T09:17:40.231Z,14.20
2022-10-31T09:20:52.932Z,12.77
2022-10-31T09:23:40.880Z,11.88
2022-10-31T09:26:29.176Z,11.13
2022-10-31T09:29:18.346Z,11.68
2022-10-31T09:32:09.017Z,10.63
2022-10-31T09:35:01.883Z,10.18
2022-10-31T09:37:56.301Z,11.48
2022-10-31T09:40:45.729Z,10.13
2022-10-31T09:43:41.610Z,11.20
2022-10-31T09:46:37.278Z,11.18
2022-10-31T09:49:54.294Z,13.25
2022-10-31T09:52:48.283Z,10.38
2022-10-31T09:55:42.306Z,9.77
2022-10-31T09:58:34.199Z,11.88
2022-10-31T10:01:35.358Z,10.90
2022-10-31T10:04:36.942Z,13.02
2022-10-31T10:07:40.878Z,12.70
2022-10-31T10:10:53.888Z,11.20
2022-10-31T10:14:03.469Z,10.68
2022-10-31T10:17:03.559Z,10.15
2022-10-31T10:20:22.827Z,8.85
2022-10-31T10:23:25.858Z,12.88
2022-10-31T10:26:20.234Z,11.93
2022-10-31T10:29:25.306Z,10.27
2022-10-31T10:32:16.679Z,11.00
2022-10-31T10:35:13.442Z,9.68
2022-10-31T10:38:11.747Z,10.65
2022-10-31T10:41:03.117Z,13.90
2022-10-31T10:43:55.215Z,8.95
2022-10-31T10:47:01.974Z,13.23
2022-10-31T10:49:53.243Z,12.40
2022-10-31T10:52:50.823Z,12.02
2022-10-31T10:55:45.430Z,9.45
2022-10-31T10:58:33.221Z,10.18
2022-10-31T11:01:22.217Z,10.30
2022-10-31T11:04:26.217Z,11.82
2022-10-31T11:07:14.151Z,9.65
2022-10-31T11:10:14.051Z,8.05
2022-10-31T11:13:22.561Z,9.68
2022-10-31T11:16:13.651Z,9.48
2022-10-31T11:19:18.943Z,12.85
2022-10-31T11:22:16.032Z,12.77
2022-10-31T11:25:22.600Z,7.65
2022-10-31T11:28:11.938Z,9.52
2022-10-31T11:31:01.902Z,10.63
2022-10-31T11:33:51.942Z,11.70
2022-10-31T11:36:44.846Z,11.48
2022-10-31T11:39:32.505Z,7.53
2022-10-31T11:42:21.155Z,12.13
2022-10-31T11:45:17.695Z,10.73
2022-10-31T11:48:18.351Z,11.60
2022-10-31T11:51:06.756Z,7.35
2022-10-31T11:54:02.769Z,16.65
2022-10-31T11:56:51.269Z,10.05
2022-10-31T11:59:41.601Z,9.93
2022-10-31T12:02:30.020Z,7.63
2022-10-31T12:05:22.858Z,9.45
2022-10-31T12:08:11.793Z,11.50
2022-10-31T12:11:09.063Z,9.00
2022-10-31T12:14:10.422Z,6.78
2022-10-31T12:17:03.346Z,8.85
2022-10-31T12:20:01.546Z,10.90
2022-10-31T12:22:59.380Z,11.48
2022-10-31T12:25:52.705Z,8.60
2022-10-31T12:28:56.355Z,11.73
2022-10-31T12:31:54.938Z,10.48
2022-10-31T12:35:13.463Z,10.40
2022-10-31T12:38:32.739Z,10.45
2022-10-31T12:41:34.626Z,15.00
2022-10-31T12:44:46.257Z,10.80
2022-10-31T12:47:47.020Z,9.30
2022-10-31T12:50:49.898Z,16.90
2022-10-31T12:53:51.739Z,10.55
2022-10-31T12:56:47.925Z,13.40
2022-10-31T12:59:41.325Z,9.25
2022-10-31T13:02:34.469Z,8.90
2022-10-31T13:05:28.779Z,12.77
2022-10-31T13:08:19.435Z,7.95
2022-10-31T13:11:12.689Z,9.75
2022-10-31T13:14:07.626Z,10.70
2022-10-31T13:16:58.283Z,9.27
2022-10-31T13:19:47.479Z,14.02
2022-10-31T13:22:37.923Z,9.32
2022-10-31T13:25:30.363Z,10.52
2022-10-31T13:28:28.142Z,11.00
2022-10-31T13:31:16.490Z,9.80
2022-10-31T13:34:12.779Z,12.68
2022-10-31T13:37:06.590Z,11.80
2022-10-31T13:40:08.281Z,8.50
2022-10-31T13:43:05.072Z,12.60
2022-10-31T13:45:55.521Z,12.82
2022-10-31T13:48:43.758Z,11.80
2022-10-31T13:51:35.286Z,13.63
2022-10-31T13:54:34.095Z,10.27
2022-10-31T13:57:30.280Z,11.00
2022-10-31T14:00:26.963Z,9.93
2022-10-31T14:03:36.300Z,10.13
2022-10-31T14:06:44.737Z,9.15
2022-10-31T14:09:35.437Z,8.40
2022-10-31T14:12:28.406Z,10.77
2022-10-31T14:15:19.778Z,9.52
2022-10-31T14:18:09.120Z,7.68
2022-10-31T14:20:56.653Z,7.22
2022-10-31T14:23:48.318Z,9.23
2022-10-31T14:26:38.957Z,8.27
2022-10-31T14:29:29.267Z,6.82
2022-10-31T14:32:24.255Z,6.50
2022-10-31T14:35:21.410Z,9.52
2022-10-31T14:38:23.482Z,7.07
2022-10-31T14:41:46.542Z,9.27
2022-10-31T14:44:54.130Z,8.88
2022-10-31T14:47:49.463Z,6.03
2022-10-31T14:50:46.830Z,5.80
2022-10-31T14:53:37.890Z,6.05
2022-10-31T14:56:29.733Z,6.40
2022-10-31T14:59:22.064Z,6.90
2022-10-31T15:02:16.091Z,8.18
2022-10-31T15:05:09.006Z,5.68
2022-10-31T15:07:58.358Z,6.10
2022-10-31T15:10:48.399Z,7.47
2022-10-31T15:13:43.280Z,9.00
2022-10-31T15:16:34.568Z,8.55
2022-10-31T15:19:25.730Z,5.43
2022-10-31T15:22:17.966Z,5.75
2022-10-31T15:25:07.144Z,7.70
2022-10-31T15:27:55.598Z,6.88
2022-10-31T15:30:53.556Z,6.97
2022-10-31T15:33:48.120Z,5.95
2022-10-31T15:39:26.449Z,7.40
2022-10-31T15:42:22.059Z,6.18
2022-10-31T15:45:20.689Z,6.65
2022-10-31T15:51:06.016Z,9.00
2022-10-31T15:56:46.559Z,6.65
2022-10-31T15:59:47.076Z,7.55
2022-10-31T16:02:35.432Z,6.63
2022-10-31T16:05:38.308Z,9.38
2022-10-31T16:08:28.297Z,6.47
2022-10-31T16:11:24.747Z,8.45
2022-10-31T16:14:25.204Z,12.30
2022-10-31T17:07:59.193Z,9.23
2022-10-31T17:10:50.053Z,9.65
2022-10-31T17:13:40.250Z,8.52
2022-10-31T17:16:28.152Z,12.32
2022-10-31T17:19:15.800Z,8.32
2022-10-31T17:22:04.057Z,8.15
2022-10-31T17:24:51.693Z,11.38
2022-10-31T17:27:42.292Z,14.55
2022-10-31T17:30:36.870Z,10.82
2022-10-31T17:33:24.659Z,12.40
2022-10-31T17:36:12.354Z,12.40
2022-10-31T17:39:00.220Z,10.68
2022-10-31T17:41:47.722Z,11.48
2022-10-31T17:44:35.704Z,11.45
2022-10-31T17:47:25.092Z,11.23
2022-10-31T17:50:12.889Z,10.98
2022-10-31T17:53:02.032Z,10.48
2022-10-31T17:55:49.798Z,9.82
2022-10-31T17:58:38.696Z,8.63
2022-10-31T18:01:26.463Z,11.38
2022-10-31T18:04:15.975Z,11.52
2022-10-31T18:07:04.075Z,8.80
2022-10-31T18:09:52.177Z,9.05
2022-10-31T18:15:27.416Z,9.38
2022-10-31T19:08:43.404Z,9.18
2022-10-31T19:11:35.018Z,8.77
2022-10-31T19:14:22.779Z,8.25
2022-10-31T19:17:10.576Z,8.80
2022-10-31T19:19:58.459Z,8.70
2022-10-31T19:22:46.015Z,8.55
2022-10-31T19:25:33.782Z,9.18
2022-10-31T19:28:22.979Z,12.43
2022-10-31T19:31:11.160Z,10.50
2022-10-31T19:33:59.127Z,11.32
2022-10-31T19:36:46.749Z,11.57
2022-10-31T19:39:34.526Z,9.60
2022-10-31T19:42:22.314Z,11.15
2022-10-31T19:45:11.664Z,13.98
2022-10-31T19:47:59.676Z,13.85
2022-10-31T19:50:47.553Z,18.92
2022-10-31T19:53:35.985Z,41.42
2022-10-31T19:56:25.528Z,31.17
2022-10-31T19:59:13.296Z,24.38
2022-10-31T20:02:02.198Z,20.65
2022-10-31T20:04:49.581Z,20.63
2022-10-31T20:07:37.309Z,22.58
2022-10-31T20:10:25.240Z,21.85
2022-10-31T20:13:15.298Z,20.45
2022-10-31T20:16:05.609Z,19.02
2022-10-31T20:18:55.044Z,22.60
2022-10-31T20:21:43.073Z,24.77
2022-10-31T20:24:33.572Z,26.80
2022-10-31T20:27:21.419Z,23.50
2022-10-31T20:30:10.365Z,26.20
2022-10-31T20:32:58.110Z,23.08
2022-10-31T20:35:47.243Z,21.83
2022-10-31T20:38:35.031Z,25.10
2022-10-31T20:41:22.739Z,21.85
2022-10-31T20:44:10.535Z,23.43
2022-10-31T20:46:58.617Z,26.17
2022-10-31T20:49:46.225Z,22.30
2022-10-31T20:52:35.532Z,28.42
2022-10-31T20:55:23.537Z,25.48
2022-10-31T20:58:11.488Z,27.27
2022-10-31T21:00:59.908Z,35.85
2022-10-31T21:03:48.982Z,29.65
2022-10-31T21:06:36.837Z,27.65
2022-10-31T21:09:26.200Z,34.53
2022-10-31T21:12:13.748Z,31.95
2022-10-31T21:15:02.919Z,28.08
2022-10-31T21:17:51.303Z,32.15
2022-10-31T21:20:41.842Z,39.28
2022-10-31T21:23:29.338Z,45.60
2022-10-31T21:26:21.096Z,60.35
2022-10-31T21:29:10.976Z,43.15
2022-10-31T21:31:59.019Z,42.33
2022-10-31T21:34:46.553Z,44.95
2022-10-31T21:37:34.103Z,43.73
2022-10-31T21:40:21.737Z,46.35
2022-10-31T21:43:11.223Z,37.67
2022-10-31T21:46:04.388Z,45.72
2022-10-31T21:48:52.590Z,48.80
2022-10-31T21:51:40.965Z,47.17
2022-10-31T21:54:28.525Z,44.03
2022-10-31T21:57:16.204Z,45.90
2022-10-31T22:00:07.065Z,39.58
2022-10-31T22:02:56.001Z,36.92
2022-10-31T22:05:43.662Z,38.13
2022-10-31T22:08:31.432Z,37.53
2022-10-31T22:11:20.483Z,35.10
2022-10-31T22:14:09.121Z,30.58
2022-10-31T22:16:58.181Z,32.77
2022-10-31T22:19:45.600Z,36.13
2022-10-31T22:22:33.347Z,33.78
2022-10-31T22:25:21.455Z,33.63
2022-10-31T22:28:08.890Z,33.67
2022-10-31T22:30:56.441Z,39.47
2022-10-31T22:33:45.805Z,36.03
2022-10-31T22:36:33.614Z,36.33
2022-10-31T22:39:21.997Z,35.67
2022-10-31T22:42:09.990Z,37.83
2022-10-31T22:44:58.015Z,36.30
2022-10-31T22:47:45.809Z,33.60
2022-10-31T22:50:35.435Z,35.53
2022-10-31T22:53:23.025Z,34.90
2022-10-31T22:56:14.403Z,32.20
2022-10-31T22:59:02.687Z,40.60
2022-10-31T23:01:50.528Z,37.17
2022-10-31T23:04:38.527Z,33.93
2022-10-31T23:07:32.109Z,37.10
2022-10-31T23:10:20.887Z,31.60
2022-10-31T23:13:27.432Z,33.27
2022-10-31T23:16:15.063Z,35.40
2022-10-31T23:19:07.730Z,36.97
2022-10-31T23:21:59.735Z,36.73
2022-10-31T23:24:49.340Z,37.83
2022-10-31T23:27:35.866Z,33.93
2022-10-31T23:30:23.626Z,35.50
2022-10-31T23:33:11.270Z,37.93
2022-10-31T23:35:59.042Z,36.38
2022-10-31T23:38:51.000Z,37.73
2022-10-31T23:41:40.062Z,42.72
2022-10-31T23:44:27.819Z,36.33
2022-10-31T23:47:16.090Z,34.50
2022-10-31T23:50:04.172Z,30.43
2022-10-31T23:52:51.788Z,34.60
2022-10-31T23:55:39.722Z,39.57
2022-10-31T23:58:28.618Z,38.27
